Time;durP1;ratioP1;P1;durP2;ratioP2;P2;SDS_P1;SDS_P2;PMS_P1;PMS_P2;Temp;Humidity;BMP_temperature;BMP_pressure;BME280_temperature;BME280_humidity;BME280_pressure;Samples;Min_cycle;Max_cycle;Signal;HPM_P1;HPM_P2
2023/01/21 00:01:13;;;;;;;47.53;23.63;;;;;;;-141.97;100.00;47780.47;5056124;28;20461;-86
2023/01/21 00:03:39;;;;;;;50.10;23.63;;;;;;;-141.97;100.00;47792.03;5063961;28;20203;-87
2023/01/21 00:06:05;;;;;;;43.03;21.77;;;;;;;-141.97;100.00;47676.69;5073043;28;20424;-87
2023/01/21 00:08:31;;;;;;;41.67;20.47;;;;;;;-141.97;100.00;47807.41;5071787;28;20188;-86
2023/01/21 00:10:56;;;;;;;38.47;19.03;;;;;;;-141.97;100.00;47745.88;5071810;28;20471;-86
2023/01/21 00:13:22;;;;;;;31.20;15.23;;;;;;;-141.97;100.00;47757.41;5063227;28;20165;-87
2023/01/21 00:15:47;;;;;;;72.17;29.27;;;;;;;-141.97;100.00;47647.84;5054637;28;20181;-86
2023/01/21 00:18:12;;;;;;;36.93;17.27;;;;;;;-141.97;100.00;47749.72;5053936;28;20185;-86
2023/01/21 00:20:38;;;;;;;31.90;15.57;;;;;;;-141.97;100.00;47711.28;5055619;28;20307;-86
2023/01/21 00:23:03;;;;;;;33.60;14.90;;;;;;;-141.97;100.00;47686.31;5058986;28;20182;-85
2023/01/21 00:25:29;;;;;;;24.43;13.37;;;;;;;-141.97;100.00;47776.63;5057210;28;20179;-87
2023/01/21 00:27:55;;;;;;;28.50;13.77;;;;;;;-141.97;100.00;47757.41;5056069;28;20161;-83
2023/01/21 00:30:20;;;;;;;27.17;14.07;;;;;;;-141.97;100.00;47749.72;5053444;28;20244;-83
2023/01/21 00:32:46;;;;;;;33.40;17.00;;;;;;;-141.97;100.00;47674.78;5051384;28;20203;-84
2023/01/21 00:35:12;;;;;;;36.00;17.50;;;;;;;-141.97;100.00;47674.78;5051630;28;20863;-83
2023/01/21 00:37:37;;;;;;;33.87;17.03;;;;;;;-141.97;100.00;47761.25;5051880;28;20176;-84
2023/01/21 00:40:04;;;;;;;33.37;16.67;;;;;;;-141.97;100.00;47757.41;5050565;28;20215;-84
2023/01/21 00:42:30;;;;;;;40.20;19.60;;;;;;;-141.97;100.00;47765.09;5052079;28;20263;-83
2023/01/21 00:44:56;;;;;;;51.73;25.43;;;;;;;-141.97;100.00;47730.50;5050132;28;20502;-84
2023/01/21 00:47:22;;;;;;;53.10;26.40;;;;;;;-141.97;100.00;47745.88;5051824;28;20161;-83
2023/01/21 00:49:47;;;;;;;40.90;20.37;;;;;;;-141.97;100.00;47726.66;5040815;28;20535;-84
2023/01/21 00:52:12;;;;;;;27.93;15.47;;;;;;;-141.97;100.00;47863.13;5051369;28;20735;-84
2023/01/21 00:54:38;;;;;;;27.77;13.73;;;;;;;-141.97;100.00;47803.56;5051310;28;20218;-84
2023/01/21 00:57:05;;;;;;;23.43;12.70;;;;;;;-141.97;100.00;47726.66;5050027;28;20173;-83
2023/01/21 00:59:31;;;;;;;28.37;13.67;;;;;;;-141.97;100.00;47761.25;5049848;28;20180;-83
2023/01/21 01:01:56;;;;;;;29.77;13.57;;;;;;;-141.97;100.00;47761.25;5051185;28;20411;-83
2023/01/21 01:04:22;;;;;;;24.90;13.30;;;;;;;-141.97;100.00;47655.53;5050983;28;20169;-83
2023/01/21 01:06:47;;;;;;;26.30;13.83;;;;;;;-141.97;100.00;47682.47;5051352;28;20242;-84
2023/01/21 01:09:13;;;;;;;25.73;12.37;;;;;;;-141.97;100.00;47690.16;5050090;28;20169;-84
2023/01/21 01:11:38;;;;;;;27.70;13.70;;;;;;;-141.97;100.00;47642.09;5056412;28;20671;-83
2023/01/21 01:14:04;;;;;;;26.50;12.70;;;;;;;-141.97;100.00;47734.34;5051071;28;20177;-83
2023/01/21 01:16:30;;;;;;;26.00;13.17;;;;;;;-141.97;100.00;47818.94;5052158;28;20194;-84
2023/01/21 01:18:56;;;;;;;24.33;12.60;;;;;;;-141.97;100.00;47670.91;5051970;28;20193;-84
2023/01/21 01:21:21;;;;;;;24.67;12.97;;;;;;;-141.97;100.00;47759.34;5052604;28;20882;-84
2023/01/21 01:23:50;;;;;;;26.30;12.33;;;;;;;-141.97;100.00;47790.09;5050578;28;20249;-84
2023/01/21 01:26:17;;;;;;;25.77;12.73;;;;;;;-141.97;100.00;47726.66;5051048;28;20165;-83
2023/01/21 01:28:43;;;;;;;25.80;12.77;;;;;;;-141.97;100.00;47680.53;5051193;28;20404;-84
2023/01/21 01:31:11;;;;;;;27.93;13.63;;;;;;;-141.97;100.00;47759.34;5050886;28;20562;-83
2023/01/21 01:33:37;;;;;;;28.00;13.40;;;;;;;-141.97;100.00;47705.53;5049909;28;20201;-83
2023/01/21 01:36:05;;;;;;;28.27;14.93;;;;;;;-141.97;100.00;47782.41;5050563;28;20436;-84
2023/01/21 01:38:31;;;;;;;27.33;14.10;;;;;;;-141.97;100.00;47722.81;5050935;28;20170;-84
2023/01/21 01:40:56;;;;;;;28.40;12.83;;;;;;;-141.97;100.00;47784.34;5050094;28;20404;-83
2023/01/21 01:43:25;;;;;;;25.90;13.83;;;;;;;-141.97;100.00;47742.03;5066209;28;20536;-83
2023/01/21 01:45:51;;;;;;;28.60;12.87;;;;;;;-141.97;100.00;47680.53;5050876;28;20223;-83
2023/01/21 01:48:27;;;;;;;29.93;13.77;;;;;;;-141.97;100.00;47738.19;5039917;28;20494;-83
2023/01/21 01:50:56;;;;;;;30.50;13.87;;;;;;;-141.97;100.00;47763.19;5050382;28;20907;-86
2023/01/21 01:53:24;;;;;;;28.33;14.20;;;;;;;-141.97;100.00;47713.22;5050609;28;20464;-84
2023/01/21 01:55:49;;;;;;;26.87;14.10;;;;;;;-141.97;100.00;47768.94;5050601;28;20422;-84
2023/01/21 01:58:16;;;;;;;27.27;13.20;;;;;;;-141.97;100.00;47838.16;5050818;28;20506;-84
2023/01/21 02:00:41;;;;;;;26.10;13.50;;;;;;;-141.97;100.00;47672.84;5050861;28;20240;-84
2023/01/21 02:05:52;;;;;;;26.43;13.40;;;;;;;-141.97;100.00;47728.59;5070730;28;20177;-83
2023/01/21 02:08:19;;;;;;;30.47;14.33;;;;;;;-141.97;100.00;47826.63;5066744;28;20487;-84
2023/01/21 02:10:44;;;;;;;27.60;13.43;;;;;;;-141.97;100.00;47749.72;5052667;28;20962;-85
2023/01/21 02:13:10;;;;;;;27.70;13.93;;;;;;;-141.97;100.00;47751.66;5050898;28;20459;-87
2023/01/21 02:15:54;;;;;;;27.20;13.77;;;;;;;-141.97;100.00;47815.09;5050723;28;20157;-83
2023/01/21 02:18:25;;;;;;;30.43;14.33;;;;;;;-141.97;100.00;47724.75;5050903;28;20408;-84
2023/01/21 02:21:19;;;;;;;30.93;15.07;;;;;;;-141.97;100.00;47786.25;5050720;28;20400;-83
2023/01/21 02:24:18;;;;;;;34.90;15.67;;;;;;;-141.97;100.00;47765.09;5050677;28;20483;-83
2023/01/21 02:27:01;;;;;;;27.70;13.17;;;;;;;-141.97;100.00;47784.34;5051900;28;20411;-83
2023/01/21 02:29:42;;;;;;;28.83;13.13;;;;;;;-141.97;100.00;47765.09;5049039;28;20469;-84
2023/01/21 02:32:19;;;;;;;27.83;13.23;;;;;;;-141.97;100.00;47757.41;5054707;28;21009;-83
2023/01/21 02:34:56;;;;;;;28.47;13.73;;;;;;;-141.97;100.00;47730.50;5054548;28;20417;-83
2023/01/21 02:37:25;;;;;;;28.80;14.00;;;;;;;-141.97;100.00;47738.19;5054284;28;20777;-83
2023/01/21 02:40:12;;;;;;;25.97;12.77;;;;;;;-141.97;100.00;47713.22;5054239;28;20496;-83
2023/01/21 02:42:40;;;;;;;27.83;12.53;;;;;;;-141.97;100.00;47767.03;5054058;28;20818;-82
2023/01/21 02:45:32;;;;;;;28.27;12.97;;;;;;;-141.97;100.00;47759.34;5054192;28;20400;-83
2023/01/21 02:48:13;;;;;;;28.83;13.73;;;;;;;-141.97;100.00;47745.88;5054084;28;20829;-84
2023/01/21 02:50:45;;;;;;;25.97;13.77;;;;;;;-141.97;100.00;47738.19;5053910;28;20853;-83
2023/01/21 02:53:22;;;;;;;28.57;14.83;;;;;;;-141.97;100.00;47740.13;5053494;28;20484;-83
2023/01/21 02:55:47;;;;;;;40.43;19.07;;;;;;;-141.97;100.00;47772.78;5053999;28;20399;-83
2023/01/21 02:58:17;;;;;;;48.47;20.97;;;;;;;-141.97;100.00;47711.28;5053783;28;20407;-83
2023/01/21 03:00:55;;;;;;;50.13;19.70;;;;;;;-141.97;100.00;47786.25;5053077;28;20204;-83
2023/01/21 03:03:24;;;;;;;44.47;18.10;;;;;;;-141.97;100.00;47749.72;5054343;28;20388;-83
2023/01/21 03:06:20;;;;;;;47.40;20.47;;;;;;;-141.97;100.00;47780.47;5054655;28;20432;-82
2023/01/21 03:09:09;;;;;;;44.17;18.67;;;;;;;-141.97;100.00;47728.59;5052927;28;20904;-83
2023/01/21 03:11:35;;;;;;;27.13;12.73;;;;;;;-141.97;100.00;47815.09;5052157;28;20448;-83
2023/01/21 03:17:25;;;;;;;27.20;12.50;;;;;;;-141.97;100.00;47755.50;5056208;28;20985;-83
2023/01/21 03:20:29;;;;;;;29.37;14.53;;;;;;;-141.97;100.00;47734.34;5053568;28;20445;-83
2023/01/21 03:23:00;;;;;;;31.57;13.93;;;;;;;-141.97;100.00;47838.16;5014344;28;20527;-82
2023/01/21 03:25:30;;;;;;;27.20;13.23;;;;;;;-141.97;100.00;47784.34;5014512;28;20437;-82
2023/01/21 03:27:58;;;;;;;29.57;12.63;;;;;;;-141.97;100.00;47699.75;5030988;28;20401;-83
2023/01/21 03:30:25;;;;;;;25.90;12.40;;;;;;;-141.97;100.00;47776.63;5030941;28;20435;-83
2023/01/21 03:32:54;;;;;;;30.57;14.07;;;;;;;-141.97;100.00;47740.13;5030978;28;20475;-82
2023/01/21 03:35:24;;;;;;;31.40;14.27;;;;;;;-141.97;100.00;47767.03;5031088;28;20503;-82
2023/01/21 03:38:15;;;;;;;32.63;14.63;;;;;;;-141.97;100.00;47718.97;5031089;28;20834;-81
2023/01/21 03:40:55;;;;;;;53.67;28.37;;;;;;;-141.97;100.00;47718.97;5030695;28;20404;-82
2023/01/21 03:43:21;;;;;;;47.87;23.20;;;;;;;-141.97;100.00;47768.94;5030208;28;20404;-84
2023/01/21 03:45:52;;;;;;;60.03;28.57;;;;;;;-141.97;100.00;47711.28;5030298;28;20506;-82
2023/01/21 03:48:40;;;;;;;58.67;27.50;;;;;;;-141.97;100.00;47761.25;5030542;28;20170;-85
2023/01/21 03:51:10;;;;;;;55.03;26.53;;;;;;;-141.97;100.00;47767.03;4953091;28;20436;-82
2023/01/21 03:53:36;;;;;;;102.37;48.10;;;;;;;-141.97;100.00;47742.03;4953216;29;21007;-82
2023/01/21 03:56:01;;;;;;;67.73;32.90;;;;;;;-141.97;100.00;47734.34;4952412;29;20424;-82
2023/01/21 03:58:27;;;;;;;54.67;25.73;;;;;;;-141.97;100.00;47792.03;4956926;28;20187;-83
2023/01/21 04:00:53;;;;;;;60.10;25.67;;;;;;;-141.97;100.00;47790.09;4992404;28;20160;-83
2023/01/21 04:03:18;;;;;;;49.77;22.87;;;;;;;-141.97;100.00;47715.13;4991101;28;20453;-83
2023/01/21 04:05:43;;;;;;;68.90;28.33;;;;;;;-141.97;100.00;47753.56;4990936;28;20243;-83
2023/01/21 04:08:09;;;;;;;56.40;24.40;;;;;;;-141.97;100.00;47780.47;4991472;28;20195;-83
2023/01/21 04:10:34;;;;;;;56.63;24.30;;;;;;;-141.97;100.00;47669.00;4990862;28;20502;-83
2023/01/21 04:13:00;;;;;;;51.47;22.57;;;;;;;-141.97;100.00;47734.34;4991051;28;20187;-82
2023/01/21 04:15:25;;;;;;;45.60;19.47;;;;;;;-141.97;100.00;47761.25;4990861;28;20187;-83
2023/01/21 04:17:50;;;;;;;53.67;23.67;;;;;;;-141.97;100.00;47734.34;4992535;28;20167;-83
2023/01/21 04:20:16;;;;;;;45.50;21.67;;;;;;;-141.97;100.00;47761.25;4977876;28;20179;-83
2023/01/21 04:22:41;;;;;;;44.70;19.73;;;;;;;-141.97;100.00;47753.56;4991964;28;20644;-82
2023/01/21 04:25:07;;;;;;;44.87;19.37;;;;;;;-141.97;100.00;47797.78;4974166;28;20206;-82
2023/01/21 04:27:32;;;;;;;48.83;20.43;;;;;;;-141.97;100.00;47743.97;4992716;28;20185;-82
2023/01/21 04:29:58;;;;;;;49.17;21.57;;;;;;;-141.97;100.00;47795.88;5051928;28;20170;-83
2023/01/21 04:32:23;;;;;;;46.53;21.73;;;;;;;-141.97;100.00;47780.47;5051709;28;20181;-83
2023/01/21 04:34:49;;;;;;;47.17;23.10;;;;;;;-141.97;100.00;47822.78;5056652;28;20175;-83
2023/01/21 04:37:14;;;;;;;43.77;21.10;;;;;;;-141.97;100.00;47767.03;5069331;28;20162;-83
2023/01/21 04:39:39;;;;;;;44.07;20.07;;;;;;;-141.97;100.00;47707.44;5068443;28;20264;-83
2023/01/21 04:42:05;;;;;;;41.57;19.00;;;;;;;-141.97;100.00;47644.00;5063921;28;20158;-83
2023/01/21 04:44:30;;;;;;;43.50;20.97;;;;;;;-141.97;100.00;47684.38;5065180;28;20221;-84
2023/01/21 04:46:56;;;;;;;98.97;38.73;;;;;;;-141.97;100.00;47792.03;5062847;28;20165;-83
2023/01/21 04:49:21;;;;;;;89.43;38.67;;;;;;;-141.97;100.00;47692.06;5058880;28;20157;-82
2023/01/21 04:51:46;;;;;;;61.43;24.17;;;;;;;-141.97;100.00;47790.09;5066149;28;20212;-83
2023/01/21 04:54:12;;;;;;;57.80;23.37;;;;;;;-141.97;100.00;47767.03;5061083;28;20567;-83
2023/01/21 04:56:37;;;;;;;57.83;23.50;;;;;;;-141.97;100.00;47615.19;5054788;28;20177;-82
2023/01/21 04:59:03;;;;;;;41.60;20.17;;;;;;;-141.97;100.00;47824.69;5064783;28;20183;-83
2023/01/21 05:01:28;;;;;;;45.20;21.33;;;;;;;-141.97;100.00;47718.97;5070776;28;20158;-83
2023/01/21 05:03:53;;;;;;;50.83;23.17;;;;;;;-141.97;100.00;47767.03;5067645;28;20236;-83
2023/01/21 05:06:19;;;;;;;83.80;40.27;;;;;;;-141.97;100.00;47659.38;5065583;28;20161;-83
2023/01/21 05:08:44;;;;;;;68.23;31.73;;;;;;;-141.97;100.00;47832.38;5061806;28;20173;-82
2023/01/21 05:11:14;;;;;;;87.13;39.83;;;;;;;-141.97;100.00;47768.94;5054411;28;20246;-83
2023/01/21 05:13:39;;;;;;;113.07;44.90;;;;;;;-141.97;100.00;47707.44;5053443;28;20177;-83
2023/01/21 05:16:07;;;;;;;107.47;46.33;;;;;;;-141.97;100.00;47755.50;5053298;28;20407;-83
2023/01/21 05:18:33;;;;;;;112.10;47.83;;;;;;;-141.97;100.00;47678.63;5051521;28;20331;-83
2023/01/21 05:20:58;;;;;;;107.17;43.60;;;;;;;-141.97;100.00;47742.03;5055555;28;20925;-83
2023/01/21 05:23:24;;;;;;;87.27;38.37;;;;;;;-141.97;100.00;47790.09;5052094;28;20161;-83
2023/01/21 05:25:49;;;;;;;83.40;38.47;;;;;;;-141.97;100.00;47742.03;5050351;28;20243;-83
2023/01/21 05:28:14;;;;;;;72.07;31.73;;;;;;;-141.97;100.00;47734.34;5051500;28;20164;-83
2023/01/21 05:30:40;;;;;;;63.50;29.27;;;;;;;-141.97;100.00;47757.41;5049807;28;20177;-83
2023/01/21 05:33:05;;;;;;;79.07;34.93;;;;;;;-141.97;100.00;47747.81;5052069;28;20189;-83
2023/01/21 05:35:34;;;;;;;87.50;38.60;;;;;;;-141.97;100.00;47817.00;5052600;28;20631;-82
2023/01/21 05:37:59;;;;;;;99.67;43.43;;;;;;;-141.97;100.00;47765.09;5051523;28;20553;-82
2023/01/21 05:40:24;;;;;;;97.50;40.73;;;;;;;-141.97;100.00;47743.97;5051373;28;20407;-82
2023/01/21 05:42:50;;;;;;;157.33;61.70;;;;;;;-141.97;100.00;47692.06;5051149;28;20157;-82
2023/01/21 05:45:16;;;;;;;119.43;49.77;;;;;;;-141.97;100.00;47805.47;5050990;28;20594;-82
2023/01/21 05:47:41;;;;;;;139.30;52.47;;;;;;;-141.97;100.00;47772.78;5051382;28;20242;-83
2023/01/21 05:50:08;;;;;;;150.47;58.90;;;;;;;-141.97;100.00;47782.41;5050949;28;20594;-83
2023/01/21 05:52:34;;;;;;;144.07;57.73;;;;;;;-141.97;100.00;47761.25;5051049;28;20228;-83
2023/01/21 05:54:59;;;;;;;119.33;46.27;;;;;;;-141.97;100.00;47761.25;5051138;28;20787;-83
2023/01/21 05:57:24;;;;;;;89.63;34.03;;;;;;;-141.97;100.00;47692.06;5051030;28;20200;-82
2023/01/21 05:59:50;;;;;;;83.93;31.77;;;;;;;-141.97;100.00;47782.41;5051227;28;20537;-83
2023/01/21 06:02:15;;;;;;;70.10;32.13;;;;;;;-141.97;100.00;47713.22;5051143;28;20189;-82
2023/01/21 06:04:41;;;;;;;167.77;57.43;;;;;;;-141.97;100.00;47768.94;5050794;28;20529;-83
2023/01/21 06:07:06;;;;;;;112.33;40.60;;;;;;;-141.97;100.00;47745.88;5053272;28;20629;-82
2023/01/21 06:09:31;;;;;;;126.37;47.83;;;;;;;-141.97;100.00;47726.66;5054762;28;20158;-84
2023/01/21 06:11:57;;;;;;;259.70;105.07;;;;;;;-141.97;100.00;47784.34;5062592;28;20251;-82
2023/01/21 06:14:22;;;;;;;197.13;80.53;;;;;;;-141.97;100.00;47717.06;5074398;28;20154;-83
2023/01/21 06:16:47;;;;;;;143.40;57.57;;;;;;;-141.97;100.00;47770.88;5077415;28;20184;-84
2023/01/21 06:19:13;;;;;;;141.97;59.63;;;;;;;-141.97;100.00;47761.25;5077113;28;20177;-83
2023/01/21 06:21:38;;;;;;;103.27;40.93;;;;;;;-141.97;100.00;47747.81;5064237;28;20162;-83
2023/01/21 06:24:04;;;;;;;89.13;39.67;;;;;;;-141.97;100.00;47707.44;5061145;28;20173;-83
2023/01/21 06:26:29;;;;;;;92.13;40.10;;;;;;;-141.97;100.00;47780.47;5056659;28;20239;-82
2023/01/21 06:28:56;;;;;;;100.57;40.63;;;;;;;-141.97;100.00;47788.19;5056459;28;20161;-83
2023/01/21 06:31:22;;;;;;;126.80;53.90;;;;;;;-141.97;100.00;47772.78;5055745;28;20157;-83
2023/01/21 06:33:47;;;;;;;139.30;62.57;;;;;;;-141.97;100.00;47788.19;5054278;28;20956;-83
2023/01/21 06:36:12;;;;;;;227.53;99.23;;;;;;;-141.97;100.00;47842.00;5054624;28;20197;-83
2023/01/21 06:38:38;;;;;;;188.37;80.00;;;;;;;-141.97;100.00;47790.09;5054661;28;20174;-83
2023/01/21 06:41:04;;;;;;;212.27;85.23;;;;;;;-141.97;100.00;47703.59;5052759;28;20184;-83
2023/01/21 06:43:29;;;;;;;68.67;26.90;;;;;;;-141.97;100.00;47751.66;5053644;28;20826;-82
2023/01/21 06:45:55;;;;;;;74.67;32.07;;;;;;;-141.97;100.00;47703.59;5053868;28;20162;-83
2023/01/21 06:48:20;;;;;;;57.47;26.23;;;;;;;-141.97;100.00;47765.09;5055116;28;20193;-83
2023/01/21 06:50:45;;;;;;;69.50;32.13;;;;;;;-141.97;100.00;47772.78;5054299;28;20170;-83
2023/01/21 06:53:11;;;;;;;61.03;25.30;;;;;;;-141.97;100.00;47609.41;5054627;28;20327;-83
2023/01/21 06:55:37;;;;;;;37.53;16.50;;;;;;;-141.97;100.00;47782.41;5055223;28;20164;-83
2023/01/21 06:58:02;;;;;;;54.80;26.07;;;;;;;-141.97;100.00;47768.94;5054003;28;20656;-83
2023/01/21 07:00:28;;;;;;;45.73;19.00;;;;;;;-141.97;100.00;47761.25;5053900;28;20181;-83
2023/01/21 07:02:57;;;;;;;41.67;19.97;;;;;;;-141.97;100.00;47653.63;5052529;28;20623;-83
2023/01/21 07:05:23;;;;;;;51.40;24.07;;;;;;;-141.97;100.00;47701.69;5053505;28;20176;-83
2023/01/21 07:07:49;;;;;;;162.47;70.80;;;;;;;-141.97;100.00;47792.03;5054020;28;20413;-83
2023/01/21 07:10:14;;;;;;;183.73;78.33;;;;;;;-141.97;100.00;47703.59;5053716;28;20166;-84
2023/01/21 07:12:40;;;;;;;195.17;80.23;;;;;;;-141.97;100.00;47745.88;5052800;28;20208;-83
2023/01/21 07:15:06;;;;;;;96.73;40.63;;;;;;;-141.97;100.00;47759.34;5054178;28;20168;-83
2023/01/21 07:17:32;;;;;;;93.53;39.00;;;;;;;-141.97;100.00;47728.59;5054025;28;20174;-82
2023/01/21 07:19:57;;;;;;;100.27;41.30;;;;;;;-141.97;100.00;47697.84;5055662;28;20415;-83
2023/01/21 07:22:22;;;;;;;81.23;34.73;;;;;;;-141.97;100.00;47701.69;5053313;28;20543;-82
2023/01/21 07:24:48;;;;;;;78.87;33.93;;;;;;;-141.97;100.00;47634.41;5054534;28;20171;-85
2023/01/21 07:27:13;;;;;;;75.60;32.30;;;;;;;-141.97;100.00;47793.94;5054500;28;20240;-84
2023/01/21 07:29:39;;;;;;;56.20;23.70;;;;;;;-141.97;100.00;47672.84;5053434;28;20254;-84
2023/01/21 07:32:04;;;;;;;54.93;21.50;;;;;;;-141.97;100.00;47786.25;5054110;28;20672;-83
2023/01/21 07:34:30;;;;;;;59.00;25.53;;;;;;;-141.97;100.00;47747.81;5066419;28;20172;-84
2023/01/21 07:36:55;;;;;;;76.97;31.87;;;;;;;-141.97;100.00;47776.63;5064927;28;20173;-83
2023/01/21 07:39:21;;;;;;;67.20;31.67;;;;;;;-141.97;100.00;47757.41;5058021;28;20247;-84
2023/01/21 07:41:46;;;;;;;86.43;35.40;;;;;;;-141.97;100.00;47690.16;5053234;28;20171;-83
2023/01/21 07:44:11;;;;;;;90.73;42.60;;;;;;;-141.97;100.00;47799.72;5052411;28;20168;-84
2023/01/21 07:46:37;;;;;;;89.43;38.57;;;;;;;-141.97;100.00;47843.91;5052271;28;20252;-83
2023/01/21 07:49:02;;;;;;;84.47;35.33;;;;;;;-141.97;100.00;47718.97;5052414;28;20170;-83
2023/01/21 07:51:28;;;;;;;85.60;34.27;;;;;;;-141.97;100.00;47842.00;5052223;28;20158;-84
2023/01/21 07:53:57;;;;;;;78.97;35.27;;;;;;;-141.97;100.00;47803.56;5052254;28;20252;-83
2023/01/21 07:56:25;;;;;;;71.27;29.93;;;;;;;-141.97;100.00;47745.88;5051203;28;20169;-83
2023/01/21 07:58:50;;;;;;;54.53;22.93;;;;;;;-141.97;100.00;47740.13;5050784;28;20422;-83
2023/01/21 08:01:16;;;;;;;63.73;27.17;;;;;;;-141.97;100.00;47711.28;5052030;28;20416;-82
2023/01/21 08:03:41;;;;;;;66.03;23.63;;;;;;;-141.97;99.31;47795.88;5052353;28;20165;-83
2023/01/21 08:06:06;;;;;;;149.00;45.67;;;;;;;-141.97;98.16;47661.31;5052243;28;20184;-82
2023/01/21 08:08:32;;;;;;;130.10;38.27;;;;;;;-141.97;98.11;47680.53;5052236;28;20276;-83
2023/01/21 08:10:58;;;;;;;67.10;29.23;;;;;;;-141.97;100.00;47759.34;5052231;28;20280;-82
2023/01/21 08:13:24;;;;;;;59.40;28.87;;;;;;;-141.97;100.00;47784.34;5051881;28;20850;-83
2023/01/21 08:15:52;;;;;;;51.90;20.57;;;;;;;-141.97;100.00;47755.50;5052366;28;20209;-83
2023/01/21 08:18:18;;;;;;;53.07;22.53;;;;;;;-141.97;100.00;47863.13;5052378;28;20436;-82
2023/01/21 08:20:44;;;;;;;54.70;26.00;;;;;;;-141.97;100.00;47722.81;5051965;28;20925;-85
2023/01/21 08:23:09;;;;;;;48.40;21.80;;;;;;;-141.97;100.00;47732.44;5052183;28;20408;-85
2023/01/21 08:25:34;;;;;;;52.40;24.00;;;;;;;-141.97;100.00;47740.13;5052522;28;20248;-84
2023/01/21 08:28:00;;;;;;;63.33;25.60;;;;;;;-141.97;100.00;47738.19;5051859;28;20248;-83
2023/01/21 08:30:25;;;;;;;64.30;26.27;;;;;;;-141.97;100.00;47780.47;5051681;28;20560;-82
2023/01/21 08:32:51;;;;;;;60.97;23.63;;;;;;;-141.97;100.00;47653.63;5051632;28;20563;-82
2023/01/21 08:35:16;;;;;;;64.70;24.97;;;;;;;-141.97;100.00;47738.19;5051347;28;20181;-82
2023/01/21 08:37:41;;;;;;;60.27;24.57;;;;;;;-141.97;100.00;47765.09;5051432;28;20626;-84
2023/01/21 08:40:07;;;;;;;60.33;24.47;;;;;;;-141.97;100.00;47680.53;5051470;28;20161;-83
2023/01/21 08:42:33;;;;;;;73.77;29.27;;;;;;;-141.97;100.00;47657.47;5051208;28;20617;-82
2023/01/21 08:44:58;;;;;;;71.17;26.80;;;;;;;-141.97;100.00;47730.50;5050121;28;20303;-83
2023/01/21 08:47:23;;;;;;;70.40;26.13;;;;;;;-141.97;100.00;47788.19;5051696;28;20164;-83
2023/01/21 08:49:49;;;;;;;80.33;31.27;;;;;;;-141.97;100.00;47795.88;5051387;28;20165;-82
2023/01/21 08:52:15;;;;;;;71.13;27.93;;;;;;;-141.97;100.00;47722.81;5050831;28;20766;-83
2023/01/21 08:54:42;;;;;;;70.87;25.37;;;;;;;-141.97;100.00;47745.88;5050044;28;20560;-83
2023/01/21 08:57:08;;;;;;;81.87;31.07;;;;;;;-141.97;100.00;47728.59;5051753;28;20435;-83
2023/01/21 08:59:33;;;;;;;85.60;30.90;;;;;;;-141.97;100.00;47765.09;5051524;28;20411;-83
2023/01/21 09:01:59;;;;;;;89.80;33.13;;;;;;;-141.97;100.00;47792.03;5051912;28;20407;-83
2023/01/21 09:04:24;;;;;;;89.77;35.73;;;;;;;-141.97;100.00;47640.16;5052532;28;20243;-84
2023/01/21 09:06:50;;;;;;;93.77;37.63;;;;;;;-141.97;100.00;47724.75;5051680;28;20216;-82
2023/01/21 09:09:15;;;;;;;108.93;46.33;;;;;;;-141.97;100.00;47876.59;5051499;28;20171;-85
2023/01/21 09:11:41;;;;;;;83.17;31.70;;;;;;;-141.97;100.00;47782.41;5051346;28;20576;-83
2023/01/21 09:14:07;;;;;;;121.03;43.57;;;;;;;-141.97;100.00;47734.34;5050536;28;20260;-84
2023/01/21 09:16:32;;;;;;;93.87;31.17;;;;;;;-141.97;100.00;47795.88;5059493;28;20168;-85
2023/01/21 09:18:58;;;;;;;76.93;27.07;;;;;;;-141.97;100.00;47707.44;5076274;28;20228;-83
2023/01/21 09:21:24;;;;;;;89.77;29.90;;;;;;;-141.97;100.00;47703.59;5058475;28;20574;-83
2023/01/21 09:23:49;;;;;;;87.87;28.83;;;;;;;-141.97;100.00;47768.94;5051914;28;20404;-83
2023/01/21 09:26:19;;;;;;;116.07;35.27;;;;;;;-141.97;100.00;47865.06;5051785;28;20236;-82
2023/01/21 09:28:50;;;;;;;107.93;32.00;;;;;;;-141.97;100.00;47743.97;5053190;28;20160;-83
2023/01/21 09:31:17;;;;;;;107.13;33.67;;;;;;;-141.97;100.00;47799.72;5052545;28;20442;-84
2023/01/21 09:33:49;;;;;;;98.20;35.67;;;;;;;-141.97;100.00;47826.63;5050490;28;20443;-83
2023/01/21 09:36:20;;;;;;;90.80;30.77;;;;;;;-141.97;100.00;47786.25;5052382;28;20457;-84
2023/01/21 09:38:47;;;;;;;64.20;23.67;;;;;;;-141.97;100.00;47845.84;5051753;28;20404;-82
2023/01/21 09:41:29;;;;;;;99.33;35.77;;;;;;;-141.97;100.00;47767.03;5053363;28;20790;-81
2023/01/21 09:44:10;;;;;;;74.37;28.10;;;;;;;-141.97;100.00;47811.25;5055375;28;20490;-82
2023/01/21 09:46:53;;;;;;;82.60;33.40;;;;;;;-141.97;100.00;47790.09;5055504;28;20896;-85
2023/01/21 09:49:29;;;;;;;68.33;24.70;;;;;;;-141.97;100.00;47807.41;5055474;28;20399;-83
2023/01/21 09:52:25;;;;;;;69.40;26.43;;;;;;;-141.97;100.00;47763.19;5055301;28;20471;-83
2023/01/21 09:54:50;;;;;;;87.80;35.13;;;;;;;-141.97;100.00;47776.63;5055117;28;20427;-83
2023/01/21 09:57:19;;;;;;;76.00;30.03;;;;;;;-141.97;100.00;47815.09;5055134;28;20407;-83
2023/01/21 09:59:59;;;;;;;83.77;31.23;;;;;;;-141.97;100.00;47818.94;5055401;28;20201;-83
2023/01/21 10:02:42;;;;;;;65.20;24.80;;;;;;;-141.97;100.00;47786.25;5055175;28;20491;-83
2023/01/21 10:05:31;;;;;;;74.13;27.10;;;;;;;-141.97;100.00;47786.25;5053565;28;20408;-84
2023/01/21 10:08:08;;;;;;;71.60;27.30;;;;;;;-141.97;100.00;47795.88;4993309;28;20489;-84
2023/01/21 10:10:45;;;;;;;80.23;32.10;;;;;;;-141.97;100.00;47803.56;4993478;28;20962;-85
2023/01/21 10:13:55;;;;;;;65.57;28.63;;;;;;;-141.97;100.00;47707.44;4993836;28;20612;-85
2023/01/21 10:17:12;;;;;;;67.27;25.93;;;;;;;-141.97;100.00;47803.56;4897870;29;20430;-85
2023/01/21 10:19:53;;;;;;;60.17;23.97;;;;;;;-141.97;100.00;47815.09;4861526;29;20440;-84
2023/01/21 10:22:24;;;;;;;68.67;27.20;;;;;;;-141.97;100.00;47828.53;4873777;29;20465;-85
2023/01/21 10:25:27;;;;;;;58.13;22.77;;;;;;;-141.97;100.00;47784.34;4875981;29;20429;-84
2023/01/21 10:27:57;;;;;;;52.77;21.73;;;;;;;-141.97;100.00;47770.88;4808992;29;20951;-84
2023/01/21 10:30:33;;;;;;;68.70;28.93;;;;;;;-141.97;100.00;47732.44;4805934;29;20431;-86
2023/01/21 10:32:59;;;;;;;50.40;21.30;;;;;;;-141.97;100.00;47803.56;4792271;29;20519;-86
2023/01/21 10:36:03;;;;;;;83.27;36.03;;;;;;;-141.97;100.00;47809.31;4806162;29;20423;-85
2023/01/21 10:38:37;;;;;;;60.87;22.97;;;;;;;-141.97;100.00;47784.34;4771380;30;20271;-86
2023/01/21 10:41:19;;;;;;;51.30;22.37;;;;;;;-141.97;100.00;47770.88;4752842;30;20842;-86
2023/01/21 10:43:57;;;;;;;58.80;26.37;;;;;;;-141.97;100.00;47726.66;4769010;29;20425;-84
2023/01/21 10:46:44;;;;;;;59.77;24.83;;;;;;;-141.97;99.31;47803.56;4805258;29;20453;-87
2023/01/21 10:49:23;;;;;;;54.17;22.33;;;;;;;-141.97;94.59;47893.91;4807617;29;20415;-86
2023/01/21 10:51:59;;;;;;;53.77;22.77;;;;;;;-141.97;90.37;47753.56;4834211;29;20236;-87
2023/01/21 10:54:45;;;;;;;56.20;25.97;;;;;;;-141.97;88.83;47895.81;4952561;29;20298;-87
2023/01/21 10:57:32;;;;;;;54.70;25.90;;;;;;;-141.97;87.16;47780.47;4956404;29;20232;-87
2023/01/21 11:00:00;;;;;;;53.27;24.83;;;;;;;-141.97;85.42;47782.41;4957965;28;20185;-86
2023/01/21 11:02:31;;;;;;;62.97;31.10;;;;;;;-141.97;86.60;47907.34;4959265;28;20227;-86
2023/01/21 11:05:00;;;;;;;72.23;39.03;;;;;;;-141.97;85.88;47792.03;4959078;28;20192;-86
2023/01/21 11:07:31;;;;;;;64.53;34.43;;;;;;;-141.97;83.99;47772.78;4960317;28;20188;-84
2023/01/21 11:09:59;;;;;;;48.67;21.53;;;;;;;-141.97;81.75;47788.19;4957905;28;20288;-88